createdAt,value
2018-11-22T12:18:07.204Z,4.60
2018-11-22T12:20:37.452Z,4.80
2018-11-22T12:23:07.560Z,5.17
2018-11-22T12:25:37.080Z,5.60
2018-11-22T12:28:06.524Z,5.00
2018-11-22T12:30:35.956Z,6.70
2018-11-22T12:33:11.003Z,4.90
2018-11-22T12:35:42.229Z,4.47
2018-11-22T12:38:17.083Z,3.98
2018-11-22T12:40:46.659Z,12.90
2018-11-22T12:43:16.100Z,5.70
2018-11-22T12:45:45.567Z,5.67
2018-11-22T12:48:14.980Z,4.30
2018-11-22T12:50:44.367Z,4.10
2018-11-22T12:53:13.853Z,4.70
2018-11-22T12:55:43.249Z,4.42
2018-11-22T12:58:12.722Z,4.15
2018-11-22T13:00:42.225Z,4.47
2018-11-22T13:03:11.889Z,4.37
2018-11-22T13:05:41.530Z,4.45
2018-11-22T13:08:11.556Z,4.37
2018-11-22T13:10:41.048Z,4.60
2018-11-22T13:13:10.576Z,5.03
2018-11-22T13:15:40.286Z,4.10
2018-11-22T13:18:09.833Z,4.75
2018-11-22T13:20:39.210Z,4.67
2018-11-22T13:23:08.608Z,3.70
2018-11-22T13:25:38.060Z,3.97
2018-11-22T13:28:07.685Z,4.30
2018-11-22T13:30:37.220Z,3.77
2018-11-22T13:33:06.867Z,4.23
2018-11-22T13:35:36.360Z,6.33
2018-11-22T13:38:07.127Z,15.87
2018-11-22T13:40:36.737Z,11.37
2018-11-22T13:43:06.810Z,4.97
2018-11-22T13:45:36.273Z,8.77
2018-11-22T13:48:06.308Z,4.23
2018-11-22T13:50:41.721Z,5.40
2018-11-22T13:53:06.696Z,4.30
2018-11-22T13:55:36.086Z,4.10
2018-11-22T13:58:05.795Z,4.87
2018-11-22T14:00:35.321Z,4.10
2018-11-22T14:03:06.285Z,4.67
2018-11-22T14:05:35.694Z,24.57
2018-11-22T14:08:05.138Z,10.77
2018-11-22T14:10:34.659Z,12.82
2018-11-22T14:13:04.271Z,6.63
2018-11-22T14:15:33.778Z,5.87
2018-11-22T14:18:06.972Z,5.60
2018-11-22T14:20:38.256Z,4.67
2018-11-22T14:23:07.956Z,4.60
2018-11-22T14:25:37.458Z,4.80
2018-11-22T14:28:07.161Z,5.93
2018-11-22T14:30:36.729Z,7.03
2018-11-22T14:33:06.441Z,8.47
2018-11-22T14:35:35.883Z,8.67
2018-11-22T14:38:05.434Z,7.97
2018-11-22T14:40:35.828Z,7.00
2018-11-22T14:43:05.476Z,6.80
2018-11-22T14:45:34.935Z,6.33
2018-11-22T14:48:04.854Z,6.73
2018-11-22T14:50:39.401Z,7.13
2018-11-22T14:53:16.208Z,6.97
2018-11-22T14:55:45.724Z,7.30
2018-11-22T14:58:15.214Z,7.30
2018-11-22T15:00:44.720Z,8.07
2018-11-22T15:03:14.263Z,6.80
2018-11-22T15:05:43.771Z,7.27
2018-11-22T15:08:13.213Z,7.37
2018-11-22T15:10:42.617Z,7.83
2018-11-22T15:13:12.076Z,6.70
2018-11-22T15:15:41.645Z,7.90
2018-11-22T15:18:11.080Z,8.20
2018-11-22T15:20:40.558Z,8.27
2018-11-22T15:23:09.990Z,9.40
2018-11-22T15:25:40.016Z,10.70
2018-11-22T15:28:09.521Z,10.07
2018-11-22T15:30:38.926Z,9.93
2018-11-22T15:33:08.440Z,9.83
2018-11-22T15:35:37.856Z,10.53
2018-11-22T15:38:07.377Z,10.87
2018-11-22T15:40:36.889Z,10.47
2018-11-22T15:43:06.439Z,9.77
2018-11-22T15:45:36.070Z,11.10
2018-11-22T15:48:05.708Z,10.67
2018-11-22T15:50:35.098Z,10.17
2018-11-22T15:53:04.566Z,9.67
2018-11-22T15:55:33.977Z,10.20
2018-11-22T15:58:04.337Z,12.47
2018-11-22T16:00:34.378Z,12.87
2018-11-22T16:03:04.140Z,11.27
2018-11-22T16:05:34.213Z,11.13
2018-11-22T16:08:03.720Z,11.77
2018-11-22T16:10:34.596Z,22.90
2018-11-22T16:13:09.291Z,14.53
2018-11-22T16:15:48.288Z,14.47
2018-11-22T16:18:17.820Z,16.63
2018-11-22T16:20:47.270Z,18.73
2018-11-22T16:23:16.855Z,18.70
2018-11-22T16:25:46.353Z,19.60
2018-11-22T16:28:15.827Z,15.57
2018-11-22T16:30:45.313Z,16.77
2018-11-22T16:33:14.762Z,23.13
2018-11-22T16:35:44.805Z,19.40
2018-11-22T16:38:14.304Z,18.47
2018-11-22T16:40:43.878Z,21.03
2018-11-22T16:43:13.392Z,25.93
2018-11-22T16:45:42.972Z,21.37
2018-11-22T16:48:13.351Z,20.17
2018-11-22T16:50:43.392Z,20.77
2018-11-22T16:53:12.854Z,21.47
2018-11-22T16:55:42.378Z,19.00
2018-11-22T16:58:11.872Z,16.00
2018-11-22T17:00:42.788Z,16.70
2018-11-22T17:03:13.616Z,16.93
2018-11-22T17:05:43.717Z,18.10
2018-11-22T17:08:13.177Z,17.53
2018-11-22T17:10:42.726Z,30.27
2018-11-22T17:13:12.159Z,43.37
2018-11-22T17:15:42.293Z,37.07
2018-11-22T17:18:11.927Z,33.87
2018-11-22T17:20:41.349Z,33.60
2018-11-22T17:23:10.872Z,36.10
2018-11-22T17:25:40.338Z,34.70
2018-11-22T17:28:09.969Z,32.73
2018-11-22T17:30:41.562Z,28.70
2018-11-22T17:33:11.114Z,28.10
2018-11-22T17:35:41.273Z,27.87
2018-11-22T17:38:11.542Z,20.60
2018-11-22T17:40:43.765Z,21.73
2018-11-22T17:43:13.285Z,24.30
2018-11-22T17:45:45.081Z,20.97
2018-11-22T17:48:14.579Z,24.40
2018-11-22T17:50:45.299Z,23.83
2018-11-22T17:53:15.558Z,25.17
2018-11-22T17:55:45.062Z,35.17
2018-11-22T17:58:15.034Z,28.57
2018-11-22T18:00:47.850Z,26.07
2018-11-22T18:03:17.384Z,23.20
2018-11-22T18:05:47.125Z,22.73
2018-11-22T18:08:16.727Z,25.40
2018-11-22T18:10:46.261Z,26.50
2018-11-22T18:13:16.430Z,24.93
2018-11-22T18:15:51.547Z,31.10
2018-11-22T18:18:21.049Z,31.40
2018-11-22T18:20:50.529Z,34.70
2018-11-22T18:23:20.075Z,34.47
2018-11-22T18:25:49.555Z,32.57
2018-11-22T18:28:18.976Z,43.10
2018-11-22T18:30:48.406Z,32.73
2018-11-22T18:33:18.642Z,31.43
2018-11-22T18:35:48.014Z,33.07
2018-11-22T18:38:17.362Z,31.00
2018-11-22T18:40:46.999Z,29.83
2018-11-22T18:43:16.413Z,30.67
2018-11-22T18:45:46.679Z,31.60
2018-11-22T18:48:17.360Z,31.10
2018-11-22T18:50:47.214Z,31.27
2018-11-22T18:53:16.719Z,34.53
2018-11-22T18:55:46.210Z,53.03
2018-11-22T18:58:15.755Z,39.97
2018-11-22T19:00:46.024Z,37.43
2018-11-22T19:03:17.769Z,32.53
2018-11-22T19:05:47.959Z,30.27
2018-11-22T19:08:17.403Z,27.93
2018-11-22T19:10:46.927Z,21.87
2018-11-22T19:13:16.858Z,19.53
2018-11-22T19:15:47.492Z,22.83
2018-11-22T19:18:17.371Z,23.83
2018-11-22T19:20:47.687Z,29.10
2018-11-22T19:23:17.746Z,17.23
2018-11-22T19:25:47.364Z,19.43
2018-11-22T19:28:17.050Z,19.83
2018-11-22T19:30:47.352Z,26.27
2018-11-22T19:33:18.416Z,39.53
2018-11-22T19:35:50.875Z,30.47
2018-11-22T19:38:21.088Z,25.00
2018-11-22T19:40:50.694Z,22.73
2018-11-22T19:43:21.099Z,26.63
2018-11-22T19:45:50.610Z,25.60
2018-11-22T19:48:21.864Z,19.60
2018-11-22T19:50:51.391Z,20.90
2018-11-22T19:53:20.804Z,21.67
2018-11-22T19:55:50.315Z,22.57
2018-11-22T19:58:19.784Z,32.87
2018-11-22T20:00:49.146Z,24.47
2018-11-22T20:03:18.630Z,29.73
2018-11-22T20:05:48.520Z,22.97
2018-11-22T20:08:19.193Z,20.30
2018-11-22T20:10:48.834Z,16.83
2018-11-22T20:13:18.421Z,18.30
2018-11-22T20:15:48.047Z,17.63
2018-11-22T20:18:18.110Z,27.97
2018-11-22T20:20:49.888Z,31.20
2018-11-22T20:23:21.805Z,37.63
2018-11-22T20:25:47.596Z,29.27
2018-11-22T20:28:17.090Z,53.57
2018-11-22T20:30:46.556Z,44.50
2018-11-22T20:33:16.084Z,58.43
2018-11-22T20:35:49.917Z,90.33
2018-11-22T20:38:19.417Z,61.37
2018-11-22T20:40:48.864Z,81.70
2018-11-22T20:43:18.337Z,80.03
2018-11-22T20:45:47.795Z,86.40
2018-11-22T20:48:17.234Z,68.47
2018-11-22T20:50:46.584Z,74.40
2018-11-22T20:53:16.307Z,55.30
2018-11-22T20:55:46.607Z,48.17
2018-11-22T20:58:16.959Z,42.07
2018-11-22T21:00:46.745Z,43.33
2018-11-22T21:03:22.598Z,47.13
2018-11-22T21:05:52.399Z,47.77
2018-11-22T21:08:23.250Z,55.23
2018-11-22T21:10:53.000Z,45.57
2018-11-22T21:13:22.607Z,45.43
2018-11-22T21:15:53.442Z,50.00
2018-11-22T21:18:23.787Z,34.43
2018-11-22T21:20:53.896Z,35.47
2018-11-22T21:23:23.292Z,30.93
2018-11-22T21:25:53.562Z,35.00
2018-11-22T21:28:23.535Z,37.30
2018-11-22T21:30:53.502Z,47.27
2018-11-22T21:33:22.857Z,34.23
2018-11-22T21:35:52.329Z,45.47
2018-11-22T21:38:21.782Z,46.17
2018-11-22T21:40:51.277Z,53.00
2018-11-22T21:43:20.734Z,42.00
2018-11-22T21:45:50.230Z,57.50
2018-11-22T21:48:19.864Z,39.50
2018-11-22T21:50:49.283Z,54.03
2018-11-22T21:53:18.731Z,34.60
2018-11-22T21:55:48.280Z,39.40
2018-11-22T21:58:17.838Z,47.37
2018-11-22T22:00:47.403Z,39.03
2018-11-22T22:03:16.769Z,40.37
2018-11-22T22:05:46.242Z,32.70
2018-11-22T22:08:15.872Z,33.53
2018-11-22T22:10:45.375Z,26.80
2018-11-22T22:13:14.965Z,31.57
2018-11-22T22:15:44.499Z,26.43
2018-11-22T22:18:13.952Z,34.73
2018-11-22T22:20:43.355Z,33.97
2018-11-22T22:23:13.516Z,33.00
2018-11-22T22:25:42.752Z,40.53
2018-11-22T22:28:12.556Z,36.07
2018-11-22T22:30:42.077Z,42.50
2018-11-22T22:33:11.685Z,30.00
2018-11-22T22:35:41.092Z,37.07
2018-11-22T22:38:10.545Z,34.13
2018-11-22T22:40:40.039Z,29.40
2018-11-22T22:43:09.814Z,39.10
2018-11-22T22:45:39.972Z,34.97
2018-11-22T22:48:09.487Z,34.37
2018-11-22T22:50:38.937Z,31.97
2018-11-22T22:53:08.423Z,31.57
2018-11-22T22:55:38.124Z,46.03
2018-11-22T22:58:07.693Z,40.37
2018-11-22T23:00:40.462Z,37.13
2018-11-22T23:03:09.901Z,31.30
2018-11-22T23:05:39.502Z,30.10
2018-11-22T23:08:09.096Z,36.83
2018-11-22T23:10:38.600Z,31.30
2018-11-22T23:13:08.287Z,35.90
2018-11-22T23:15:37.765Z,25.63
2018-11-22T23:18:07.585Z,29.63
2018-11-22T23:20:37.606Z,29.67
2018-11-22T23:23:07.050Z,23.33
2018-11-22T23:25:36.464Z,29.87
2018-11-22T23:28:05.900Z,28.07
2018-11-22T23:30:36.038Z,20.30
2018-11-22T23:33:06.880Z,22.93
2018-11-22T23:35:36.430Z,19.50
2018-11-22T23:38:06.071Z,25.23
2018-11-22T23:40:35.597Z,24.97
2018-11-22T23:43:06.170Z,37.57
2018-11-22T23:45:34.729Z,22.07
2018-11-22T23:48:04.192Z,24.43
2018-11-22T23:50:34.144Z,26.53
2018-11-22T23:53:04.278Z,23.50
2018-11-22T23:55:33.673Z,21.17
2018-11-22T23:58:03.065Z,22.90
